sensor_id;sensor_type;location;lat;lon;timestamp;P1;durP1;ratioP1;P2;durP2;ratioP2
24064;SDS011;12258;50.940;5.330;2022-08-21T00:01:01;5.25;;;3.08;;
24064;SDS011;12258;50.940;5.330;2022-08-21T00:03:30;5.60;;;3.40;;
24064;SDS011;12258;50.940;5.330;2022-08-21T00:05:57;9.07;;;3.65;;
24064;SDS011;12258;50.940;5.330;2022-08-21T00:08:22;6.30;;;3.67;;
24064;SDS011;12258;50.940;5.330;2022-08-21T00:10:48;6.30;;;3.35;;
24064;SDS011;12258;50.940;5.330;2022-08-21T00:13:14;7.40;;;3.30;;
24064;SDS011;12258;50.940;5.330;2022-08-21T00:15:40;6.13;;;2.97;;
24064;SDS011;12258;50.940;5.330;2022-08-21T00:18:07;7.68;;;3.25;;
24064;SDS011;12258;50.940;5.330;2022-08-21T00:20:34;6.60;;;2.60;;
24064;SDS011;12258;50.940;5.330;2022-08-21T00:23:00;6.80;;;3.45;;
24064;SDS011;12258;50.940;5.330;2022-08-21T00:25:26;6.13;;;2.95;;
24064;SDS011;12258;50.940;5.330;2022-08-21T00:27:52;8.20;;;2.80;;
24064;SDS011;12258;50.940;5.330;2022-08-21T00:30:18;6.60;;;3.42;;
24064;SDS011;12258;50.940;5.330;2022-08-21T00:32:46;9.57;;;3.30;;
24064;SDS011;12258;50.940;5.330;2022-08-21T00:35:13;11.90;;;3.10;;
24064;SDS011;12258;50.940;5.330;2022-08-21T00:37:41;6.15;;;2.97;;
24064;SDS011;12258;50.940;5.330;2022-08-21T00:40:09;5.03;;;3.13;;
24064;SDS011;12258;50.940;5.330;2022-08-21T00:42:37;6.68;;;2.90;;
24064;SDS011;12258;50.940;5.330;2022-08-21T00:45:03;10.27;;;3.45;;
24064;SDS011;12258;50.940;5.330;2022-08-21T00:47:30;6.10;;;2.80;;
24064;SDS011;12258;50.940;5.330;2022-08-21T00:49:55;7.80;;;2.80;;
24064;SDS011;12258;50.940;5.330;2022-08-21T00:52:23;6.97;;;3.15;;
24064;SDS011;12258;50.940;5.330;2022-08-21T00:54:50;6.63;;;3.08;;
24064;SDS011;12258;50.940;5.330;2022-08-21T00:57:19;10.23;;;3.65;;
24064;SDS011;12258;50.940;5.330;2022-08-21T00:59:48;6.00;;;3.17;;
24064;SDS011;12258;50.940;5.330;2022-08-21T01:02:17;7.47;;;3.10;;
24064;SDS011;12258;50.940;5.330;2022-08-21T01:04:43;8.05;;;3.10;;
24064;SDS011;12258;50.940;5.330;2022-08-21T01:07:09;8.32;;;3.03;;
24064;SDS011;12258;50.940;5.330;2022-08-21T01:09:35;5.00;;;2.78;;
24064;SDS011;12258;50.940;5.330;2022-08-21T01:12:02;6.22;;;3.20;;
24064;SDS011;12258;50.940;5.330;2022-08-21T01:14:29;7.95;;;3.33;;
24064;SDS011;12258;50.940;5.330;2022-08-21T01:16:55;6.32;;;2.38;;
24064;SDS011;12258;50.940;5.330;2022-08-21T01:19:23;10.73;;;4.10;;
24064;SDS011;12258;50.940;5.330;2022-08-21T01:21:50;7.28;;;3.10;;
24064;SDS011;12258;50.940;5.330;2022-08-21T01:24:16;5.43;;;2.83;;
24064;SDS011;12258;50.940;5.330;2022-08-21T01:26:42;9.90;;;3.20;;
24064;SDS011;12258;50.940;5.330;2022-08-21T01:31:40;6.90;;;4.00;;
24064;SDS011;12258;50.940;5.330;2022-08-21T01:34:05;6.75;;;3.15;;
24064;SDS011;12258;50.940;5.330;2022-08-21T01:36:31;8.10;;;3.13;;
24064;SDS011;12258;50.940;5.330;2022-08-21T01:38:57;10.63;;;3.28;;
24064;SDS011;12258;50.940;5.330;2022-08-21T01:41:23;7.45;;;3.00;;
24064;SDS011;12258;50.940;5.330;2022-08-21T01:43:48;5.72;;;2.88;;
24064;SDS011;12258;50.940;5.330;2022-08-21T01:46:15;5.22;;;2.85;;
24064;SDS011;12258;50.940;5.330;2022-08-21T01:48:41;5.57;;;2.58;;
24064;SDS011;12258;50.940;5.330;2022-08-21T01:51:07;6.55;;;2.80;;
24064;SDS011;12258;50.940;5.330;2022-08-21T01:53:33;9.38;;;2.92;;
24064;SDS011;12258;50.940;5.330;2022-08-21T01:56:01;7.80;;;2.83;;
24064;SDS011;12258;50.940;5.330;2022-08-21T01:58:29;9.27;;;3.25;;
24064;SDS011;12258;50.940;5.330;2022-08-21T02:00:55;5.72;;;2.78;;
24064;SDS011;12258;50.940;5.330;2022-08-21T02:03:20;6.43;;;2.92;;
24064;SDS011;12258;50.940;5.330;2022-08-21T02:05:46;7.78;;;2.80;;
24064;SDS011;12258;50.940;5.330;2022-08-21T02:08:12;8.38;;;3.05;;
24064;SDS011;12258;50.940;5.330;2022-08-21T02:10:38;5.65;;;2.60;;
24064;SDS011;12258;50.940;5.330;2022-08-21T02:13:03;6.47;;;3.15;;
24064;SDS011;12258;50.940;5.330;2022-08-21T02:15:29;8.88;;;3.03;;
24064;SDS011;12258;50.940;5.330;2022-08-21T02:17:57;9.95;;;2.95;;
24064;SDS011;12258;50.940;5.330;2022-08-21T02:20:25;10.88;;;3.03;;
24064;SDS011;12258;50.940;5.330;2022-08-21T02:22:57;7.90;;;3.00;;
24064;SDS011;12258;50.940;5.330;2022-08-21T02:25:23;9.23;;;3.33;;
24064;SDS011;12258;50.940;5.330;2022-08-21T02:27:50;8.48;;;3.28;;
24064;SDS011;12258;50.940;5.330;2022-08-21T02:30:27;5.68;;;3.00;;
24064;SDS011;12258;50.940;5.330;2022-08-21T02:32:56;7.57;;;2.83;;
24064;SDS011;12258;50.940;5.330;2022-08-21T02:35:23;7.18;;;2.90;;
24064;SDS011;12258;50.940;5.330;2022-08-21T02:37:53;7.25;;;3.60;;
24064;SDS011;12258;50.940;5.330;2022-08-21T02:40:26;6.38;;;3.00;;
24064;SDS011;12258;50.940;5.330;2022-08-21T02:42:55;9.07;;;3.20;;
24064;SDS011;12258;50.940;5.330;2022-08-21T02:45:21;9.98;;;3.65;;
24064;SDS011;12258;50.940;5.330;2022-08-21T02:47:51;14.70;;;3.78;;
24064;SDS011;12258;50.940;5.330;2022-08-21T02:50:23;7.85;;;3.20;;
24064;SDS011;12258;50.940;5.330;2022-08-21T02:52:51;10.60;;;3.70;;
24064;SDS011;12258;50.940;5.330;2022-08-21T02:55:17;5.72;;;2.92;;
24064;SDS011;12258;50.940;5.330;2022-08-21T02:57:43;9.20;;;3.03;;
24064;SDS011;12258;50.940;5.330;2022-08-21T03:00:09;7.22;;;3.00;;
24064;SDS011;12258;50.940;5.330;2022-08-21T03:02:36;10.18;;;3.53;;
24064;SDS011;12258;50.940;5.330;2022-08-21T03:05:03;5.07;;;2.67;;
24064;SDS011;12258;50.940;5.330;2022-08-21T03:07:29;6.72;;;2.60;;
24064;SDS011;12258;50.940;5.330;2022-08-21T03:09:55;6.85;;;3.15;;
24064;SDS011;12258;50.940;5.330;2022-08-21T03:12:20;7.45;;;2.72;;
24064;SDS011;12258;50.940;5.330;2022-08-21T03:14:45;8.75;;;3.00;;
24064;SDS011;12258;50.940;5.330;2022-08-21T03:17:11;8.27;;;2.70;;
24064;SDS011;12258;50.940;5.330;2022-08-21T03:19:36;6.43;;;3.08;;
24064;SDS011;12258;50.940;5.330;2022-08-21T03:22:02;6.60;;;2.40;;
24064;SDS011;12258;50.940;5.330;2022-08-21T03:24:27;5.53;;;2.75;;
24064;SDS011;12258;50.940;5.330;2022-08-21T03:26:52;9.32;;;2.72;;
24064;SDS011;12258;50.940;5.330;2022-08-21T03:29:18;4.32;;;2.45;;
24064;SDS011;12258;50.940;5.330;2022-08-21T03:31:43;5.93;;;2.78;;
24064;SDS011;12258;50.940;5.330;2022-08-21T03:34:09;8.88;;;3.05;;
24064;SDS011;12258;50.940;5.330;2022-08-21T03:36:35;7.85;;;2.60;;
24064;SDS011;12258;50.940;5.330;2022-08-21T03:39:01;7.82;;;3.10;;
24064;SDS011;12258;50.940;5.330;2022-08-21T03:41:28;12.57;;;3.38;;
24064;SDS011;12258;50.940;5.330;2022-08-21T03:43:53;6.03;;;3.03;;
24064;SDS011;12258;50.940;5.330;2022-08-21T03:46:19;6.20;;;3.03;;
24064;SDS011;12258;50.940;5.330;2022-08-21T03:48:44;8.40;;;3.00;;
24064;SDS011;12258;50.940;5.330;2022-08-21T03:51:10;10.80;;;3.33;;
24064;SDS011;12258;50.940;5.330;2022-08-21T03:53:35;12.45;;;3.10;;
24064;SDS011;12258;50.940;5.330;2022-08-21T03:56:01;10.52;;;3.35;;
24064;SDS011;12258;50.940;5.330;2022-08-21T03:58:28;11.20;;;3.38;;
24064;SDS011;12258;50.940;5.330;2022-08-21T04:00:55;9.32;;;3.60;;
24064;SDS011;12258;50.940;5.330;2022-08-21T04:03:22;11.20;;;3.40;;
24064;SDS011;12258;50.940;5.330;2022-08-21T04:05:49;10.40;;;3.63;;
24064;SDS011;12258;50.940;5.330;2022-08-21T04:08:15;8.75;;;3.55;;
24064;SDS011;12258;50.940;5.330;2022-08-21T04:10:43;10.93;;;3.63;;
24064;SDS011;12258;50.940;5.330;2022-08-21T04:13:12;11.30;;;4.05;;
24064;SDS011;12258;50.940;5.330;2022-08-21T04:15:37;12.32;;;3.47;;
24064;SDS011;12258;50.940;5.330;2022-08-21T04:18:03;7.07;;;2.97;;
24064;SDS011;12258;50.940;5.330;2022-08-21T04:20:30;8.88;;;2.78;;
24064;SDS011;12258;50.940;5.330;2022-08-21T04:22:56;10.00;;;2.90;;
24064;SDS011;12258;50.940;5.330;2022-08-21T04:25:22;9.45;;;2.85;;
24064;SDS011;12258;50.940;5.330;2022-08-21T04:27:50;10.95;;;3.33;;
24064;SDS011;12258;50.940;5.330;2022-08-21T04:30:16;10.60;;;2.78;;
24064;SDS011;12258;50.940;5.330;2022-08-21T04:32:43;9.77;;;3.30;;
24064;SDS011;12258;50.940;5.330;2022-08-21T04:35:13;7.28;;;2.95;;
24064;SDS011;12258;50.940;5.330;2022-08-21T04:37:40;9.88;;;2.70;;
24064;SDS011;12258;50.940;5.330;2022-08-21T04:40:06;12.40;;;3.50;;
24064;SDS011;12258;50.940;5.330;2022-08-21T04:42:40;7.90;;;2.85;;
24064;SDS011;12258;50.940;5.330;2022-08-21T04:45:09;4.97;;;2.33;;
24064;SDS011;12258;50.940;5.330;2022-08-21T04:47:34;11.02;;;2.50;;
24064;SDS011;12258;50.940;5.330;2022-08-21T04:50:00;8.45;;;2.90;;
24064;SDS011;12258;50.940;5.330;2022-08-21T04:52:25;7.82;;;2.85;;
24064;SDS011;12258;50.940;5.330;2022-08-21T04:54:50;6.30;;;2.60;;
24064;SDS011;12258;50.940;5.330;2022-08-21T04:57:17;10.60;;;3.00;;
24064;SDS011;12258;50.940;5.330;2022-08-21T04:59:47;10.45;;;3.22;;
24064;SDS011;12258;50.940;5.330;2022-08-21T05:02:15;7.68;;;2.92;;
24064;SDS011;12258;50.940;5.330;2022-08-21T05:04:50;10.32;;;3.00;;
24064;SDS011;12258;50.940;5.330;2022-08-21T05:07:22;10.68;;;3.00;;
24064;SDS011;12258;50.940;5.330;2022-08-21T05:09:51;13.32;;;3.25;;
24064;SDS011;12258;50.940;5.330;2022-08-21T05:12:17;5.65;;;2.33;;
24064;SDS011;12258;50.940;5.330;2022-08-21T05:14:43;8.70;;;2.53;;
24064;SDS011;12258;50.940;5.330;2022-08-21T05:17:09;7.22;;;2.58;;
24064;SDS011;12258;50.940;5.330;2022-08-21T05:19:35;11.98;;;2.75;;
24064;SDS011;12258;50.940;5.330;2022-08-21T05:22:01;11.57;;;3.20;;
24064;SDS011;12258;50.940;5.330;2022-08-21T05:24:27;11.23;;;2.55;;
24064;SDS011;12258;50.940;5.330;2022-08-21T05:26:53;10.60;;;3.20;;
24064;SDS011;12258;50.940;5.330;2022-08-21T05:29:18;12.25;;;2.97;;
24064;SDS011;12258;50.940;5.330;2022-08-21T05:31:44;11.02;;;3.35;;
24064;SDS011;12258;50.940;5.330;2022-08-21T05:34:12;6.13;;;2.40;;
24064;SDS011;12258;50.940;5.330;2022-08-21T05:36:39;7.07;;;2.28;;
24064;SDS011;12258;50.940;5.330;2022-08-21T05:39:04;7.60;;;2.10;;
24064;SDS011;12258;50.940;5.330;2022-08-21T05:41:29;11.32;;;2.85;;
24064;SDS011;12258;50.940;5.330;2022-08-21T05:43:55;9.25;;;2.70;;
24064;SDS011;12258;50.940;5.330;2022-08-21T05:46:21;11.20;;;3.00;;
24064;SDS011;12258;50.940;5.330;2022-08-21T05:48:46;6.40;;;2.50;;
24064;SDS011;12258;50.940;5.330;2022-08-21T05:51:13;12.95;;;3.25;;
24064;SDS011;12258;50.940;5.330;2022-08-21T05:53:40;10.38;;;2.80;;
24064;SDS011;12258;50.940;5.330;2022-08-21T05:56:09;14.25;;;3.38;;
24064;SDS011;12258;50.940;5.330;2022-08-21T05:58:36;9.35;;;3.00;;
24064;SDS011;12258;50.940;5.330;2022-08-21T06:01:02;10.93;;;3.30;;
24064;SDS011;12258;50.940;5.330;2022-08-21T06:03:31;7.85;;;2.67;;
24064;SDS011;12258;50.940;5.330;2022-08-21T06:05:59;10.98;;;2.83;;
24064;SDS011;12258;50.940;5.330;2022-08-21T06:08:26;10.20;;;3.08;;
24064;SDS011;12258;50.940;5.330;2022-08-21T06:10:52;16.10;;;3.45;;
24064;SDS011;12258;50.940;5.330;2022-08-21T06:13:20;12.55;;;3.38;;
24064;SDS011;12258;50.940;5.330;2022-08-21T06:15:46;8.48;;;3.13;;
24064;SDS011;12258;50.940;5.330;2022-08-21T06:18:12;9.95;;;2.65;;
24064;SDS011;12258;50.940;5.330;2022-08-21T06:20:39;12.63;;;4.05;;
24064;SDS011;12258;50.940;5.330;2022-08-21T06:23:05;8.27;;;2.83;;
24064;SDS011;12258;50.940;5.330;2022-08-21T06:25:30;7.53;;;3.10;;
24064;SDS011;12258;50.940;5.330;2022-08-21T06:28:07;9.45;;;2.90;;
24064;SDS011;12258;50.940;5.330;2022-08-21T06:30:34;11.48;;;3.03;;
24064;SDS011;12258;50.940;5.330;2022-08-21T06:33:03;8.25;;;2.85;;
24064;SDS011;12258;50.940;5.330;2022-08-21T06:35:28;10.73;;;3.08;;
24064;SDS011;12258;50.940;5.330;2022-08-21T06:37:55;9.73;;;3.20;;
24064;SDS011;12258;50.940;5.330;2022-08-21T06:40:21;7.65;;;2.88;;
24064;SDS011;12258;50.940;5.330;2022-08-21T06:42:47;12.05;;;2.97;;
24064;SDS011;12258;50.940;5.330;2022-08-21T06:45:13;8.32;;;3.30;;
24064;SDS011;12258;50.940;5.330;2022-08-21T06:47:38;12.88;;;2.70;;
24064;SDS011;12258;50.940;5.330;2022-08-21T06:50:04;9.27;;;3.00;;
24064;SDS011;12258;50.940;5.330;2022-08-21T06:52:32;8.52;;;3.28;;
24064;SDS011;12258;50.940;5.330;2022-08-21T06:54:59;9.35;;;3.08;;
24064;SDS011;12258;50.940;5.330;2022-08-21T06:57:24;15.63;;;3.20;;
24064;SDS011;12258;50.940;5.330;2022-08-21T06:59:50;10.45;;;3.05;;
24064;SDS011;12258;50.940;5.330;2022-08-21T07:02:16;9.05;;;2.65;;
24064;SDS011;12258;50.940;5.330;2022-08-21T07:04:42;10.73;;;3.22;;
24064;SDS011;12258;50.940;5.330;2022-08-21T07:07:07;12.45;;;2.70;;
24064;SDS011;12258;50.940;5.330;2022-08-21T07:09:33;15.93;;;2.65;;
24064;SDS011;12258;50.940;5.330;2022-08-21T07:11:58;9.98;;;2.92;;
24064;SDS011;12258;50.940;5.330;2022-08-21T07:14:24;7.25;;;2.63;;
24064;SDS011;12258;50.940;5.330;2022-08-21T07:16:50;8.30;;;2.58;;
24064;SDS011;12258;50.940;5.330;2022-08-21T07:19:16;12.05;;;2.72;;
24064;SDS011;12258;50.940;5.330;2022-08-21T07:21:42;9.98;;;2.15;;
24064;SDS011;12258;50.940;5.330;2022-08-21T07:24:08;6.07;;;2.20;;
24064;SDS011;12258;50.940;5.330;2022-08-21T07:26:34;6.82;;;2.03;;
24064;SDS011;12258;50.940;5.330;2022-08-21T07:29:00;9.90;;;2.40;;
24064;SDS011;12258;50.940;5.330;2022-08-21T07:31:27;12.73;;;2.35;;
24064;SDS011;12258;50.940;5.330;2022-08-21T07:33:53;9.45;;;2.75;;
24064;SDS011;12258;50.940;5.330;2022-08-21T07:36:19;7.47;;;1.95;;
24064;SDS011;12258;50.940;5.330;2022-08-21T07:38:45;6.05;;;1.55;;
24064;SDS011;12258;50.940;5.330;2022-08-21T07:41:44;10.88;;;2.45;;
24064;SDS011;12258;50.940;5.330;2022-08-21T07:44:02;7.60;;;1.90;;
24064;SDS011;12258;50.940;5.330;2022-08-21T07:46:28;10.02;;;2.10;;
24064;SDS011;12258;50.940;5.330;2022-08-21T07:48:53;4.90;;;1.85;;
24064;SDS011;12258;50.940;5.330;2022-08-21T07:51:20;8.65;;;2.53;;
24064;SDS011;12258;50.940;5.330;2022-08-21T07:53:52;10.75;;;2.13;;
24064;SDS011;12258;50.940;5.330;2022-08-21T07:56:19;9.32;;;2.10;;
24064;SDS011;12258;50.940;5.330;2022-08-21T07:58:45;9.23;;;2.03;;
24064;SDS011;12258;50.940;5.330;2022-08-21T08:01:11;5.88;;;1.60;;
24064;SDS011;12258;50.940;5.330;2022-08-21T08:03:37;5.95;;;1.80;;
24064;SDS011;12258;50.940;5.330;2022-08-21T08:06:03;6.53;;;2.17;;
24064;SDS011;12258;50.940;5.330;2022-08-21T08:08:30;11.13;;;2.38;;
24064;SDS011;12258;50.940;5.330;2022-08-21T08:10:56;7.20;;;1.90;;
24064;SDS011;12258;50.940;5.330;2022-08-21T08:13:22;10.93;;;1.90;;
24064;SDS011;12258;50.940;5.330;2022-08-21T08:15:48;9.27;;;2.00;;
24064;SDS011;12258;50.940;5.330;2022-08-21T08:18:14;6.45;;;2.03;;
24064;SDS011;12258;50.940;5.330;2022-08-21T08:20:39;10.07;;;2.40;;
24064;SDS011;12258;50.940;5.330;2022-08-21T08:23:06;7.68;;;1.85;;
24064;SDS011;12258;50.940;5.330;2022-08-21T08:25:32;6.63;;;1.95;;
24064;SDS011;12258;50.940;5.330;2022-08-21T08:27:58;6.20;;;1.50;;
24064;SDS011;12258;50.940;5.330;2022-08-21T08:30:25;6.20;;;1.95;;
24064;SDS011;12258;50.940;5.330;2022-08-21T08:32:51;7.22;;;2.30;;
24064;SDS011;12258;50.940;5.330;2022-08-21T08:35:17;7.70;;;1.95;;
24064;SDS011;12258;50.940;5.330;2022-08-21T08:37:42;5.47;;;1.50;;
24064;SDS011;12258;50.940;5.330;2022-08-21T08:40:11;9.02;;;1.85;;
24064;SDS011;12258;50.940;5.330;2022-08-21T08:45:20;8.73;;;1.85;;
24064;SDS011;12258;50.940;5.330;2022-08-21T08:47:52;6.25;;;1.92;;
24064;SDS011;12258;50.940;5.330;2022-08-21T08:54:00;4.85;;;1.45;;
24064;SDS011;12258;50.940;5.330;2022-08-21T08:56:18;7.78;;;2.15;;
24064;SDS011;12258;50.940;5.330;2022-08-21T08:58:49;6.28;;;1.80;;
24064;SDS011;12258;50.940;5.330;2022-08-21T09:01:18;6.93;;;1.67;;
24064;SDS011;12258;50.940;5.330;2022-08-21T09:03:45;8.88;;;2.20;;
24064;SDS011;12258;50.940;5.330;2022-08-21T09:06:30;4.38;;;1.83;;
24064;SDS011;12258;50.940;5.330;2022-08-21T09:09:34;5.43;;;1.60;;
24064;SDS011;12258;50.940;5.330;2022-08-21T09:12:25;10.15;;;1.95;;
24064;SDS011;12258;50.940;5.330;2022-08-21T09:15:33;6.93;;;2.30;;
24064;SDS011;12258;50.940;5.330;2022-08-21T09:21:24;5.18;;;1.60;;
24064;SDS011;12258;50.940;5.330;2022-08-21T09:26:54;8.02;;;1.95;;
24064;SDS011;12258;50.940;5.330;2022-08-21T09:29:27;4.93;;;1.65;;
24064;SDS011;12258;50.940;5.330;2022-08-21T09:31:56;6.57;;;1.40;;
24064;SDS011;12258;50.940;5.330;2022-08-21T09:34:26;4.90;;;1.38;;
24064;SDS011;12258;50.940;5.330;2022-08-21T09:36:54;5.72;;;1.60;;
24064;SDS011;12258;50.940;5.330;2022-08-21T09:39:27;5.80;;;1.35;;
24064;SDS011;12258;50.940;5.330;2022-08-21T09:41:58;4.38;;;1.40;;
24064;SDS011;12258;50.940;5.330;2022-08-21T09:44:30;6.88;;;1.30;;
24064;SDS011;12258;50.940;5.330;2022-08-21T09:47:01;3.83;;;1.30;;
24064;SDS011;12258;50.940;5.330;2022-08-21T09:49:27;4.57;;;1.25;;
24064;SDS011;12258;50.940;5.330;2022-08-21T09:52:04;4.97;;;1.17;;
24064;SDS011;12258;50.940;5.330;2022-08-21T09:54:48;3.85;;;1.27;;
24064;SDS011;12258;50.940;5.330;2022-08-21T09:57:24;7.63;;;1.73;;
24064;SDS011;12258;50.940;5.330;2022-08-21T10:03:17;4.10;;;1.20;;
24064;SDS011;12258;50.940;5.330;2022-08-21T10:05:50;7.13;;;1.20;;
24064;SDS011;12258;50.940;5.330;2022-08-21T10:08:19;6.63;;;1.20;;
24064;SDS011;12258;50.940;5.330;2022-08-21T10:10:49;4.68;;;1.38;;
24064;SDS011;12258;50.940;5.330;2022-08-21T10:13:28;2.72;;;0.93;;
24064;SDS011;12258;50.940;5.330;2022-08-21T10:21:53;4.95;;;1.20;;
24064;SDS011;12258;50.940;5.330;2022-08-21T10:24:44;3.83;;;1.27;;
24064;SDS011;12258;50.940;5.330;2022-08-21T10:27:22;6.40;;;1.80;;
24064;SDS011;12258;50.940;5.330;2022-08-21T10:29:57;3.30;;;1.17;;
24064;SDS011;12258;50.940;5.330;2022-08-21T10:32:40;5.07;;;1.40;;
24064;SDS011;12258;50.940;5.330;2022-08-21T10:43:02;6.20;;;1.40;;
24064;SDS011;12258;50.940;5.330;2022-08-21T10:45:52;5.10;;;1.15;;
24064;SDS011;12258;50.940;5.330;2022-08-21T10:51:20;4.38;;;1.10;;
24064;SDS011;12258;50.940;5.330;2022-08-21T10:56:30;4.03;;;1.40;;
24064;SDS011;12258;50.940;5.330;2022-08-21T10:59:04;9.37;;;1.40;;
24064;SDS011;12258;50.940;5.330;2022-08-21T11:06:53;6.00;;;1.63;;
24064;SDS011;12258;50.940;5.330;2022-08-21T11:09:25;3.63;;;1.33;;
24064;SDS011;12258;50.940;5.330;2022-08-21T11:12:12;6.40;;;1.77;;
24064;SDS011;12258;50.940;5.330;2022-08-21T11:14:51;6.38;;;1.60;;
24064;SDS011;12258;50.940;5.330;2022-08-21T11:17:20;10.25;;;1.65;;
24064;SDS011;12258;50.940;5.330;2022-08-21T11:20:01;3.72;;;1.50;;
24064;SDS011;12258;50.940;5.330;2022-08-21T11:25:06;5.35;;;1.45;;
24064;SDS011;12258;50.940;5.330;2022-08-21T11:27:43;5.72;;;1.40;;
24064;SDS011;12258;50.940;5.330;2022-08-21T11:30:14;5.68;;;1.90;;
24064;SDS011;12258;50.940;5.330;2022-08-21T11:32:58;3.30;;;1.25;;
24064;SDS011;12258;50.940;5.330;2022-08-21T11:41:13;7.88;;;1.98;;
24064;SDS011;12258;50.940;5.330;2022-08-21T11:46:53;9.60;;;2.08;;
24064;SDS011;12258;50.940;5.330;2022-08-21T11:54:37;4.28;;;1.92;;
24064;SDS011;12258;50.940;5.330;2022-08-21T11:57:08;4.20;;;1.50;;
24064;SDS011;12258;50.940;5.330;2022-08-21T11:59:39;4.05;;;1.23;;
24064;SDS011;12258;50.940;5.330;2022-08-21T12:02:14;8.02;;;2.13;;
24064;SDS011;12258;50.940;5.330;2022-08-21T12:04:51;6.03;;;1.40;;
24064;SDS011;12258;50.940;5.330;2022-08-21T12:09:57;4.70;;;1.90;;
24064;SDS011;12258;50.940;5.330;2022-08-21T12:12:29;5.40;;;1.63;;
24064;SDS011;12258;50.940;5.330;2022-08-21T12:18:04;5.20;;;1.50;;
24064;SDS011;12258;50.940;5.330;2022-08-21T12:25:36;6.00;;;1.55;;
24064;SDS011;12258;50.940;5.330;2022-08-21T12:28:10;7.00;;;1.70;;
24064;SDS011;12258;50.940;5.330;2022-08-21T12:30:39;5.28;;;1.40;;
24064;SDS011;12258;50.940;5.330;2022-08-21T12:33:28;7.90;;;1.92;;
24064;SDS011;12258;50.940;5.330;2022-08-21T12:36:03;6.60;;;1.85;;
24064;SDS011;12258;50.940;5.330;2022-08-21T12:38:39;6.35;;;1.67;;
24064;SDS011;12258;50.940;5.330;2022-08-21T12:41:16;6.47;;;1.85;;
24064;SDS011;12258;50.940;5.330;2022-08-21T12:43:53;7.32;;;1.98;;
24064;SDS011;12258;50.940;5.330;2022-08-21T12:46:27;5.38;;;1.67;;
24064;SDS011;12258;50.940;5.330;2022-08-21T12:49:12;6.72;;;1.48;;
24064;SDS011;12258;50.940;5.330;2022-08-21T12:51:50;5.40;;;1.83;;
24064;SDS011;12258;50.940;5.330;2022-08-21T12:54:21;7.40;;;1.63;;
24064;SDS011;12258;50.940;5.330;2022-08-21T12:56:56;5.20;;;1.38;;
24064;SDS011;12258;50.940;5.330;2022-08-21T12:59:23;5.07;;;1.40;;
24064;SDS011;12258;50.940;5.330;2022-08-21T13:01:49;4.97;;;1.65;;
24064;SDS011;12258;50.940;5.330;2022-08-21T13:04:18;5.80;;;1.27;;
24064;SDS011;12258;50.940;5.330;2022-08-21T13:06:47;9.88;;;1.50;;
24064;SDS011;12258;50.940;5.330;2022-08-21T13:09:18;7.13;;;1.55;;
24064;SDS011;12258;50.940;5.330;2022-08-21T13:11:49;6.15;;;1.80;;
24064;SDS011;12258;50.940;5.330;2022-08-21T13:14:30;7.18;;;1.60;;
24064;SDS011;12258;50.940;5.330;2022-08-21T13:17:03;4.70;;;1.52;;
24064;SDS011;12258;50.940;5.330;2022-08-21T13:19:30;5.80;;;2.35;;
24064;SDS011;12258;50.940;5.330;2022-08-21T13:21:57;7.18;;;1.70;;
24064;SDS011;12258;50.940;5.330;2022-08-21T13:24:27;10.70;;;2.67;;
24064;SDS011;12258;50.940;5.330;2022-08-21T13:26:54;7.07;;;1.90;;
24064;SDS011;12258;50.940;5.330;2022-08-21T13:29:22;3.75;;;1.58;;
24064;SDS011;12258;50.940;5.330;2022-08-21T13:31:53;6.15;;;1.55;;
24064;SDS011;12258;50.940;5.330;2022-08-21T13:34:22;4.53;;;1.30;;
24064;SDS011;12258;50.940;5.330;2022-08-21T13:36:51;6.95;;;1.85;;
24064;SDS011;12258;50.940;5.330;2022-08-21T13:39:19;5.13;;;1.48;;
24064;SDS011;12258;50.940;5.330;2022-08-21T13:41:46;5.55;;;1.60;;
24064;SDS011;12258;50.940;5.330;2022-08-21T13:44:16;5.22;;;1.67;;
24064;SDS011;12258;50.940;5.330;2022-08-21T13:46:43;5.70;;;1.40;;
24064;SDS011;12258;50.940;5.330;2022-08-21T13:49:10;6.72;;;1.73;;
24064;SDS011;12258;50.940;5.330;2022-08-21T13:51:40;8.07;;;1.80;;
24064;SDS011;12258;50.940;5.330;2022-08-21T13:54:21;5.20;;;1.58;;
24064;SDS011;12258;50.940;5.330;2022-08-21T13:56:51;5.75;;;1.80;;
24064;SDS011;12258;50.940;5.330;2022-08-21T13:59:32;5.72;;;1.77;;
24064;SDS011;12258;50.940;5.330;2022-08-21T14:02:19;7.60;;;1.80;;
24064;SDS011;12258;50.940;5.330;2022-08-21T14:04:51;8.77;;;2.03;;
24064;SDS011;12258;50.940;5.330;2022-08-21T14:07:40;6.65;;;1.83;;
24064;SDS011;12258;50.940;5.330;2022-08-21T14:10:12;5.32;;;1.33;;
24064;SDS011;12258;50.940;5.330;2022-08-21T14:12:48;4.30;;;1.73;;
24064;SDS011;12258;50.940;5.330;2022-08-21T14:15:18;5.35;;;1.73;;
24064;SDS011;12258;50.940;5.330;2022-08-21T14:17:47;6.43;;;2.08;;
24064;SDS011;12258;50.940;5.330;2022-08-21T14:20:25;8.35;;;2.70;;
24064;SDS011;12258;50.940;5.330;2022-08-21T14:22:58;5.68;;;1.90;;
24064;SDS011;12258;50.940;5.330;2022-08-21T14:27:50;5.55;;;1.75;;
24064;SDS011;12258;50.940;5.330;2022-08-21T14:30:19;7.82;;;1.65;;
24064;SDS011;12258;50.940;5.330;2022-08-21T14:32:59;4.80;;;1.83;;
24064;SDS011;12258;50.940;5.330;2022-08-21T14:35:25;7.68;;;1.70;;
24064;SDS011;12258;50.940;5.330;2022-08-21T14:37:51;4.50;;;1.52;;
24064;SDS011;12258;50.940;5.330;2022-08-21T14:40:19;9.55;;;2.30;;
24064;SDS011;12258;50.940;5.330;2022-08-21T14:42:45;11.95;;;2.28;;
24064;SDS011;12258;50.940;5.330;2022-08-21T14:47:54;5.57;;;1.60;;
24064;SDS011;12258;50.940;5.330;2022-08-21T14:50:20;7.15;;;2.10;;
24064;SDS011;12258;50.940;5.330;2022-08-21T14:52:46;7.57;;;1.38;;
24064;SDS011;12258;50.940;5.330;2022-08-21T14:55:13;5.22;;;1.50;;
24064;SDS011;12258;50.940;5.330;2022-08-21T14:57:40;8.65;;;2.38;;
24064;SDS011;12258;50.940;5.330;2022-08-21T15:00:09;9.07;;;2.00;;
24064;SDS011;12258;50.940;5.330;2022-08-21T15:02:36;5.13;;;1.52;;
24064;SDS011;12258;50.940;5.330;2022-08-21T15:05:02;8.75;;;1.73;;
24064;SDS011;12258;50.940;5.330;2022-08-21T15:07:28;6.63;;;1.58;;
24064;SDS011;12258;50.940;5.330;2022-08-21T15:09:53;6.18;;;1.70;;
24064;SDS011;12258;50.940;5.330;2022-08-21T15:12:19;6.10;;;1.67;;
24064;SDS011;12258;50.940;5.330;2022-08-21T15:14:44;4.63;;;1.73;;
24064;SDS011;12258;50.940;5.330;2022-08-21T15:17:10;8.90;;;2.05;;
24064;SDS011;12258;50.940;5.330;2022-08-21T15:19:36;5.88;;;1.50;;
24064;SDS011;12258;50.940;5.330;2022-08-21T15:22:02;8.23;;;2.10;;
24064;SDS011;12258;50.940;5.330;2022-08-21T15:24:28;5.68;;;1.63;;
24064;SDS011;12258;50.940;5.330;2022-08-21T15:26:53;7.47;;;1.80;;
24064;SDS011;12258;50.940;5.330;2022-08-21T15:29:20;5.88;;;1.35;;
24064;SDS011;12258;50.940;5.330;2022-08-21T15:31:53;9.20;;;2.05;;
24064;SDS011;12258;50.940;5.330;2022-08-21T15:34:20;8.60;;;1.70;;
24064;SDS011;12258;50.940;5.330;2022-08-21T15:36:47;6.38;;;1.70;;
24064;SDS011;12258;50.940;5.330;2022-08-21T15:39:12;5.53;;;1.52;;
24064;SDS011;12258;50.940;5.330;2022-08-21T15:41:38;5.32;;;1.45;;
24064;SDS011;12258;50.940;5.330;2022-08-21T15:44:04;6.60;;;1.95;;
24064;SDS011;12258;50.940;5.330;2022-08-21T15:46:30;8.07;;;2.08;;
24064;SDS011;12258;50.940;5.330;2022-08-21T15:48:56;6.38;;;1.60;;
24064;SDS011;12258;50.940;5.330;2022-08-21T15:51:22;6.13;;;1.58;;
24064;SDS011;12258;50.940;5.330;2022-08-21T15:53:48;6.00;;;1.88;;
24064;SDS011;12258;50.940;5.330;2022-08-21T15:56:16;7.90;;;2.10;;
24064;SDS011;12258;50.940;5.330;2022-08-21T15:58:47;6.55;;;1.75;;
24064;SDS011;12258;50.940;5.330;2022-08-21T16:01:13;6.88;;;1.65;;
24064;SDS011;12258;50.940;5.330;2022-08-21T16:03:39;6.47;;;1.58;;
24064;SDS011;12258;50.940;5.330;2022-08-21T16:06:04;6.47;;;1.65;;
24064;SDS011;12258;50.940;5.330;2022-08-21T16:08:30;6.45;;;1.50;;
24064;SDS011;12258;50.940;5.330;2022-08-21T16:10:56;5.03;;;1.80;;